Time;durP1;ratioP1;P1;durP2;ratioP2;P2;SDS_P1;SDS_P2;PMS_P1;PMS_P2;Temp;Humidity;BMP_temperature;BMP_pressure;BME280_temperature;BME280_humidity;BME280_pressure;Samples;Min_cycle;Max_cycle;Signal;HPM_P1;HPM_P2
2022/08/24 00:02:25;;;;;;;3.50;1.70;;;;;;;17.39;87.48;96411.19;5084825;28;20078;-74
2022/08/24 00:04:52;;;;;;;6.90;1.77;;;;;;;17.39;87.71;96411.19;5084842;28;20028;-74
2022/08/24 00:07:19;;;;;;;4.07;1.90;;;;;;;17.37;87.32;96408.75;5083975;28;20035;-73
2022/08/24 00:09:46;;;;;;;2.88;1.65;;;;;;;17.34;88.03;96410.97;5081427;28;20051;-73
2022/08/24 00:12:13;;;;;;;4.85;1.50;;;;;;;17.29;89.16;96408.06;5070966;28;20036;-73
2022/08/24 00:14:40;;;;;;;5.60;2.15;;;;;;;17.22;90.10;96405.38;5084092;28;20124;-73
2022/08/24 00:17:05;;;;;;;2.85;1.88;;;;;;;17.13;90.76;96404.72;5084144;28;20035;-74
2022/08/24 00:19:31;;;;;;;3.08;1.90;;;;;;;17.18;90.34;96402.28;5085336;28;20032;-73
2022/08/24 00:21:59;;;;;;;3.22;1.90;;;;;;;17.15;90.65;96402.69;5082817;28;20035;-73
2022/08/24 00:24:24;;;;;;;5.32;2.17;;;;;;;17.08;91.78;96401.00;5077777;28;20187;-73
2022/08/24 00:26:51;;;;;;;3.60;1.80;;;;;;;16.92;93.33;96402.94;5084766;28;20039;-73
2022/08/24 00:29:18;;;;;;;6.15;1.85;;;;;;;16.96;93.66;96409.50;5085669;28;20031;-74
2022/08/24 00:31:45;;;;;;;3.20;1.55;;;;;;;16.95;93.32;96405.22;5074298;28;20059;-73
2022/08/24 00:34:12;;;;;;;4.90;1.90;;;;;;;16.88;93.80;96407.03;5087110;28;20055;-74
2022/08/24 00:36:40;;;;;;;3.65;1.83;;;;;;;16.86;94.46;96405.56;5080872;28;20028;-74
2022/08/24 00:39:07;;;;;;;5.22;1.85;;;;;;;16.80;94.80;96406.34;5084152;28;20031;-73
2022/08/24 00:41:33;;;;;;;4.28;1.73;;;;;;;16.84;94.60;96405.78;5087785;28;20027;-73
2022/08/24 00:44:03;;;;;;;3.83;1.73;;;;;;;16.79;95.36;96402.88;5087180;28;20405;-74
2022/08/24 00:46:47;;;;;;;5.07;1.80;;;;;;;16.73;96.23;96400.94;5082912;28;20544;-74
2022/08/24 00:49:22;;;;;;;2.90;1.77;;;;;;;16.82;95.83;96402.47;5088969;28;20036;-75
2022/08/24 00:52:02;;;;;;;6.75;2.00;;;;;;;16.83;96.29;96400.63;5086380;28;20132;-74
2022/08/24 00:54:32;;;;;;;4.35;1.70;;;;;;;16.76;97.42;96405.09;5080683;28;20028;-73
2022/08/24 00:57:03;;;;;;;3.47;2.10;;;;;;;16.81;97.30;96400.03;5079124;28;20028;-73
2022/08/24 00:59:35;;;;;;;2.97;1.67;;;;;;;16.58;98.90;96397.59;5084011;28;20035;-73
2022/08/24 01:02:16;;;;;;;4.70;2.33;;;;;;;16.56;99.92;96402.25;5084315;28;20822;-73
2022/08/24 01:04:50;;;;;;;3.63;1.92;;;;;;;16.46;100.00;96407.88;5062667;28;20032;-73
2022/08/24 01:07:16;;;;;;;3.60;2.00;;;;;;;16.41;100.00;96405.00;5087002;28;20655;-73
2022/08/24 01:09:42;;;;;;;5.73;3.03;;;;;;;16.37;100.00;96406.41;5086107;28;20377;-74
2022/08/24 01:12:09;;;;;;;4.63;1.83;;;;;;;16.35;100.00;96400.47;5087169;28;20089;-73
2022/08/24 01:14:36;;;;;;;4.23;2.37;;;;;;;16.33;100.00;96399.81;5069804;28;20039;-74
2022/08/24 01:19:50;;;;;;;3.50;2.30;;;;;;;16.14;100.00;96396.00;5079651;28;20023;-73
2022/08/24 01:22:37;;;;;;;4.03;2.10;;;;;;;16.12;100.00;96404.13;5069616;28;20045;-74
2022/08/24 01:25:05;;;;;;;3.47;2.03;;;;;;;16.14;100.00;96396.81;5081294;28;20192;-73
2022/08/24 01:27:31;;;;;;;3.97;2.27;;;;;;;16.03;100.00;96402.63;5087330;28;20054;-73
2022/08/24 01:30:00;;;;;;;3.40;2.10;;;;;;;16.06;100.00;96399.56;5085482;28;20755;-73
2022/08/24 01:32:29;;;;;;;4.30;2.20;;;;;;;16.04;100.00;96398.97;5085176;28;20032;-75
2022/08/24 01:34:56;;;;;;;6.27;2.47;;;;;;;16.05;100.00;96400.59;5073179;28;20086;-73
2022/08/24 01:37:22;;;;;;;4.43;2.27;;;;;;;16.03;100.00;96400.78;5068735;28;20485;-73
2022/08/24 01:39:51;;;;;;;5.20;2.43;;;;;;;15.98;100.00;96394.41;5085371;28;20032;-74
2022/08/24 01:42:17;;;;;;;4.23;2.27;;;;;;;15.93;100.00;96396.81;5089874;28;20061;-73
2022/08/24 01:44:44;;;;;;;3.60;2.27;;;;;;;15.75;100.00;96399.88;5081548;28;20036;-73
2022/08/24 01:47:13;;;;;;;5.23;2.07;;;;;;;15.78;100.00;96402.97;5078687;28;20039;-73
2022/08/24 01:49:43;;;;;;;5.33;2.20;;;;;;;15.81;100.00;96404.44;5076884;28;20055;-74
2022/08/24 01:52:12;;;;;;;4.30;2.10;;;;;;;15.85;100.00;96407.53;5085901;28;20028;-73
2022/08/24 01:54:39;;;;;;;5.37;3.10;;;;;;;15.74;100.00;96407.00;5066435;28;20418;-73
2022/08/24 01:57:06;;;;;;;8.43;2.83;;;;;;;15.83;100.00;96401.56;5077219;28;20409;-73
2022/08/24 01:59:32;;;;;;;4.33;2.67;;;;;;;15.89;100.00;96406.13;5084272;28;20040;-74
2022/08/24 02:02:07;;;;;;;4.80;2.87;;;;;;;15.76;100.00;96410.31;5087247;28;20119;-73
2022/08/24 02:04:34;;;;;;;5.60;3.03;;;;;;;15.79;100.00;96396.69;5086757;28;20031;-73
2022/08/24 02:07:00;;;;;;;5.87;2.33;;;;;;;15.84;100.00;96403.25;5069902;28;20514;-73
2022/08/24 02:09:27;;;;;;;5.50;2.80;;;;;;;15.85;100.00;96405.69;5088930;28;20035;-74
2022/08/24 02:11:54;;;;;;;9.20;3.00;;;;;;;15.85;100.00;96410.19;5087970;28;20036;-73
2022/08/24 02:14:20;;;;;;;3.87;2.33;;;;;;;15.87;100.00;96405.53;5087384;28;20031;-73
2022/08/24 02:16:46;;;;;;;5.00;2.03;;;;;;;15.87;100.00;96402.88;5087258;28;20024;-73
2022/08/24 02:19:12;;;;;;;4.73;2.60;;;;;;;15.78;100.00;96408.28;5088070;28;20028;-73
2022/08/24 02:21:38;;;;;;;4.00;2.80;;;;;;;15.64;100.00;96413.59;5081811;28;20089;-73
2022/08/24 02:24:06;;;;;;;6.13;3.00;;;;;;;15.65;100.00;96410.75;5068542;28;20135;-73
2022/08/24 02:26:31;;;;;;;4.43;2.37;;;;;;;15.58;100.00;96409.84;5086889;28;20032;-73
2022/08/24 02:28:58;;;;;;;4.33;2.33;;;;;;;15.55;100.00;96405.72;5088222;28;20024;-74
2022/08/24 02:31:24;;;;;;;5.03;2.60;;;;;;;15.58;100.00;96404.53;5088620;28;20115;-74
2022/08/24 02:33:50;;;;;;;5.37;2.60;;;;;;;15.57;100.00;96405.56;5087984;28;20119;-73
2022/08/24 02:36:16;;;;;;;4.87;2.90;;;;;;;15.51;100.00;96404.47;5083440;28;20024;-74
2022/08/24 02:38:42;;;;;;;4.90;2.87;;;;;;;15.42;100.00;96405.56;5087379;28;20028;-73
2022/08/24 02:41:13;;;;;;;5.87;2.83;;;;;;;15.49;100.00;96408.31;5086819;28;20035;-73
2022/08/24 02:43:39;;;;;;;5.20;2.67;;;;;;;15.60;100.00;96407.84;5070662;28;20059;-73
2022/08/24 02:46:05;;;;;;;5.90;2.97;;;;;;;15.58;100.00;96412.50;5084842;28;20032;-73
2022/08/24 02:48:31;;;;;;;5.53;3.10;;;;;;;15.56;100.00;96407.41;5088195;28;20024;-73
2022/08/24 02:50:57;;;;;;;4.50;2.50;;;;;;;15.54;100.00;96401.44;5087568;28;20070;-73
2022/08/24 02:53:23;;;;;;;4.60;2.87;;;;;;;15.46;100.00;96401.56;5081766;28;20080;-74
2022/08/24 02:55:49;;;;;;;4.57;2.40;;;;;;;15.47;100.00;96399.72;5086981;28;20027;-74
2022/08/24 02:58:16;;;;;;;6.07;2.87;;;;;;;15.46;100.00;96412.16;5088355;28;20397;-73
2022/08/24 03:00:47;;;;;;;5.17;3.07;;;;;;;15.48;100.00;96404.03;5087157;28;20080;-74
2022/08/24 03:03:15;;;;;;;7.97;3.47;;;;;;;15.31;100.00;96416.66;5083057;28;20063;-73
2022/08/24 03:05:41;;;;;;;4.97;3.00;;;;;;;15.14;100.00;96408.06;5069759;28;20070;-74
2022/08/24 03:08:07;;;;;;;7.23;3.10;;;;;;;15.01;100.00;96408.72;5086306;28;20439;-73
2022/08/24 03:10:33;;;;;;;10.57;3.57;;;;;;;14.91;100.00;96412.63;5084114;28;20064;-74
2022/08/24 03:13:02;;;;;;;5.57;3.30;;;;;;;14.77;100.00;96401.84;5083335;28;20043;-74
2022/08/24 03:15:28;;;;;;;5.47;3.00;;;;;;;14.73;100.00;96399.75;5084164;28;20023;-74
2022/08/24 03:17:56;;;;;;;6.20;3.07;;;;;;;14.65;100.00;96405.13;5083538;28;20035;-73
2022/08/24 03:20:22;;;;;;;5.87;3.37;;;;;;;14.57;100.00;96412.13;5079547;28;20042;-73
2022/08/24 03:22:49;;;;;;;7.83;3.40;;;;;;;14.62;100.00;96406.31;5083846;28;20528;-73
2022/08/24 03:25:16;;;;;;;5.03;3.10;;;;;;;14.49;100.00;96403.44;5078733;28;20024;-73
2022/08/24 03:27:42;;;;;;;5.23;3.40;;;;;;;14.56;100.00;96399.09;5077053;28;20028;-73
2022/08/24 03:30:12;;;;;;;8.47;3.40;;;;;;;14.67;100.00;96397.84;5085922;28;20032;-74
2022/08/24 03:32:40;;;;;;;14.77;10.97;;;;;;;14.69;100.00;96401.09;5079742;28;20043;-73
2022/08/24 03:35:07;;;;;;;6.83;4.03;;;;;;;14.60;100.00;96395.91;5089608;28;20055;-73
2022/08/24 03:37:33;;;;;;;6.17;3.60;;;;;;;14.56;100.00;96404.41;5084995;28;20485;-73
2022/08/24 03:39:59;;;;;;;7.90;3.10;;;;;;;14.61;100.00;96399.38;5083535;28;20047;-73
2022/08/24 03:42:25;;;;;;;4.47;2.93;;;;;;;14.68;100.00;96402.94;5084905;28;20408;-73
2022/08/24 03:44:51;;;;;;;6.00;3.40;;;;;;;14.61;100.00;96404.66;5084827;28;20060;-73
2022/08/24 03:47:20;;;;;;;5.53;3.10;;;;;;;14.61;100.00;96407.31;5077130;28;20081;-73
2022/08/24 03:49:45;;;;;;;5.63;3.67;;;;;;;14.62;100.00;96403.69;5080738;28;20028;-74
2022/08/24 03:52:11;;;;;;;6.10;3.30;;;;;;;14.57;100.00;96409.50;5079384;28;20048;-73
2022/08/24 03:54:37;;;;;;;5.07;3.30;;;;;;;14.59;100.00;96406.69;5068133;28;20402;-73
2022/08/24 03:57:02;;;;;;;4.73;3.23;;;;;;;14.66;100.00;96406.78;5082935;28;20448;-73
2022/08/24 03:59:28;;;;;;;6.53;3.03;;;;;;;14.57;100.00;96408.69;5065830;28;20040;-73
2022/08/24 04:01:56;;;;;;;6.03;3.70;;;;;;;14.52;100.00;96411.03;5077120;28;20020;-73
2022/08/24 04:04:24;;;;;;;11.20;5.00;;;;;;;14.48;100.00;96407.88;5087105;28;20382;-74
2022/08/24 04:06:50;;;;;;;7.03;5.17;;;;;;;14.54;100.00;96406.38;5084940;28;20534;-73
2022/08/24 04:09:17;;;;;;;7.90;4.93;;;;;;;14.43;100.00;96410.25;5071986;28;20115;-73
2022/08/24 04:11:45;;;;;;;8.87;4.83;;;;;;;14.35;100.00;96413.81;5086772;28;20536;-74
2022/08/24 04:14:13;;;;;;;9.07;4.60;;;;;;;14.28;100.00;96406.75;5070770;28;20042;-74
2022/08/24 04:16:41;;;;;;;9.17;4.57;;;;;;;14.15;100.00;96407.34;5087710;28;20389;-72
2022/08/24 04:19:14;;;;;;;7.90;4.10;;;;;;;14.18;100.00;96411.44;5088570;28;20765;-72
2022/08/24 04:21:43;;;;;;;7.67;4.30;;;;;;;14.08;100.00;96411.69;5084501;28;20028;-72
2022/08/24 04:24:11;;;;;;;6.93;3.93;;;;;;;14.08;100.00;96415.19;5082489;28;20059;-72
2022/08/24 04:26:38;;;;;;;7.03;4.00;;;;;;;14.02;100.00;96415.88;5083487;28;20028;-74
2022/08/24 04:29:08;;;;;;;7.10;4.20;;;;;;;13.87;100.00;96418.44;5089277;28;20020;-73
2022/08/24 04:31:35;;;;;;;6.03;3.70;;;;;;;14.02;100.00;96412.41;5088502;28;20153;-73
2022/08/24 04:34:01;;;;;;;7.13;4.40;;;;;;;13.95;100.00;96416.75;5087224;28;20092;-73
2022/08/24 04:36:28;;;;;;;8.57;5.67;;;;;;;14.04;100.00;96415.69;5100986;28;20083;-74
2022/08/24 04:38:53;;;;;;;6.77;4.27;;;;;;;13.90;100.00;96420.72;5087066;28;20051;-72
2022/08/24 04:41:39;;;;;;;7.33;4.23;;;;;;;14.00;100.00;96423.16;5089224;28;20043;-72
2022/08/24 04:44:05;;;;;;;5.93;4.00;;;;;;;14.01;100.00;96418.69;5088166;28;20062;-73
2022/08/24 04:46:31;;;;;;;7.03;4.50;;;;;;;14.26;100.00;96414.03;5067080;28;20393;-73
2022/08/24 04:48:56;;;;;;;5.90;4.17;;;;;;;14.22;100.00;96421.53;5088475;28;20028;-72
2022/08/24 04:51:22;;;;;;;6.20;4.00;;;;;;;14.13;100.00;96427.84;5087204;28;20028;-72
2022/08/24 04:53:49;;;;;;;7.30;4.70;;;;;;;14.24;100.00;96427.44;5087188;28;20031;-73
2022/08/24 04:56:24;;;;;;;5.67;4.20;;;;;;;14.30;100.00;96425.91;5090970;28;20039;-73
2022/08/24 04:58:54;;;;;;;6.93;4.40;;;;;;;14.38;100.00;96431.97;5080654;28;20115;-72
2022/08/24 05:01:24;;;;;;;14.27;9.47;;;;;;;14.39;100.00;96432.78;5078163;28;20028;-72
2022/08/24 05:03:53;;;;;;;8.13;4.60;;;;;;;14.28;100.00;96435.84;5086542;28;20109;-73
2022/08/24 05:06:21;;;;;;;7.83;4.23;;;;;;;14.28;100.00;96438.47;5062039;28;20036;-73
2022/08/24 05:08:47;;;;;;;7.33;4.63;;;;;;;14.18;100.00;96441.38;5073431;28;20627;-72
2022/08/24 05:11:16;;;;;;;8.37;4.27;;;;;;;14.35;100.00;96432.31;5085902;28;20031;-72
2022/08/24 05:13:43;;;;;;;8.63;4.27;;;;;;;14.50;100.00;96439.47;5069320;28;20089;-72
2022/08/24 05:16:12;;;;;;;7.00;4.23;;;;;;;14.38;100.00;96444.34;5079361;28;20062;-72
2022/08/24 05:18:39;;;;;;;6.53;4.00;;;;;;;14.60;100.00;96442.72;5068044;28;20124;-73
2022/08/24 05:21:08;;;;;;;9.10;4.50;;;;;;;14.73;100.00;96444.75;5064927;28;20024;-73
2022/08/24 05:23:35;;;;;;;7.80;4.60;;;;;;;14.87;100.00;96441.31;5077538;28;20036;-73
2022/08/24 05:26:09;;;;;;;7.33;4.50;;;;;;;14.99;100.00;96441.66;5086320;28;20115;-73
2022/08/24 05:28:35;;;;;;;7.43;4.47;;;;;;;15.15;100.00;96446.78;5076604;28;20560;-73
2022/08/24 05:31:11;;;;;;;8.53;5.43;;;;;;;15.10;100.00;96446.53;5079915;28;20104;-72
2022/08/24 05:33:37;;;;;;;7.43;4.73;;;;;;;15.28;100.00;96439.03;5086695;28;20028;-72
2022/08/24 05:36:04;;;;;;;7.20;4.87;;;;;;;15.30;100.00;96446.81;5081240;28;20020;-72
2022/08/24 05:38:32;;;;;;;9.03;4.93;;;;;;;15.70;100.00;96452.66;5086429;28;20043;-72
2022/08/24 05:41:02;;;;;;;8.10;5.17;;;;;;;15.78;100.00;96445.41;5086781;28;20047;-72
2022/08/24 05:43:28;;;;;;;6.97;4.60;;;;;;;16.03;100.00;96443.25;5077775;28;20207;-72
2022/08/24 05:45:54;;;;;;;7.60;4.47;;;;;;;16.08;100.00;96447.97;5077330;28;20759;-73
2022/08/24 05:48:20;;;;;;;9.47;5.47;;;;;;;15.97;100.00;96440.50;5086613;28;20077;-73
2022/08/24 05:51:07;;;;;;;6.80;4.80;;;;;;;16.67;100.00;96438.91;5081856;28;20078;-73
2022/08/24 05:53:38;;;;;;;6.83;4.90;;;;;;;16.71;100.00;96442.81;5068432;28;20040;-73
2022/08/24 05:56:08;;;;;;;6.93;4.50;;;;;;;16.94;100.00;96447.94;5080626;28;20405;-72
2022/08/24 05:58:36;;;;;;;11.40;5.80;;;;;;;16.99;100.00;96456.13;5086263;28;20584;-72
2022/08/24 06:01:12;;;;;;;8.50;5.40;;;;;;;17.52;100.00;96456.44;5082235;28;20448;-72
2022/08/24 06:03:39;;;;;;;10.60;5.20;;;;;;;17.76;100.00;96446.31;5084721;28;20103;-74
2022/08/24 06:06:09;;;;;;;7.80;5.30;;;;;;;18.65;100.00;96450.66;5085079;28;20028;-72
2022/08/24 06:08:40;;;;;;;8.50;5.10;;;;;;;18.73;100.00;96458.44;5068776;28;20093;-72
2022/08/24 06:11:06;;;;;;;8.18;5.28;;;;;;;18.61;100.00;96456.38;5085801;28;20509;-73
2022/08/24 06:13:33;;;;;;;7.88;4.65;;;;;;;19.86;100.00;96458.25;5080300;28;20096;-73
2022/08/24 06:16:07;;;;;;;8.25;4.70;;;;;;;19.56;100.00;96461.41;5092094;28;20165;-73
2022/08/24 06:18:34;;;;;;;7.20;4.95;;;;;;;19.28;100.00;96456.31;5083028;28;20036;-73
2022/08/24 06:21:08;;;;;;;8.68;4.80;;;;;;;19.43;100.00;96448.91;5085551;28;20039;-74
2022/08/24 06:23:35;;;;;;;7.10;4.50;;;;;;;19.86;100.00;96453.72;5085229;28;20123;-74
2022/08/24 06:28:47;;;;;;;8.85;4.63;;;;;;;19.25;100.00;96457.59;5082728;28;20032;-74
2022/08/24 06:31:14;;;;;;;10.40;5.57;;;;;;;19.79;100.00;96452.94;5085977;28;20028;-74
2022/08/24 06:33:39;;;;;;;8.40;5.40;;;;;;;19.04;100.00;96457.81;5086590;28;20028;-73
2022/08/24 06:36:05;;;;;;;13.02;5.70;;;;;;;19.54;100.00;96456.25;5085354;28;20027;-74
2022/08/24 06:38:31;;;;;;;6.80;5.10;;;;;;;19.94;100.00;96458.81;5083731;28;20030;-73
2022/08/24 06:40:57;;;;;;;7.35;4.95;;;;;;;20.45;100.00;96463.25;5081439;28;20087;-74
2022/08/24 06:43:24;;;;;;;8.60;5.15;;;;;;;21.13;100.00;96454.53;5079259;28;20028;-74
2022/08/24 06:45:53;;;;;;;9.73;4.85;;;;;;;21.39;98.86;96452.63;5083602;28;20081;-74
2022/08/24 06:48:24;;;;;;;9.27;4.45;;;;;;;21.40;100.00;96460.44;5078059;28;20036;-74
2022/08/24 06:50:51;;;;;;;10.00;4.63;;;;;;;21.97;96.37;96454.84;5076165;28;20040;-74
2022/08/24 06:53:17;;;;;;;8.32;4.18;;;;;;;22.69;89.88;96452.19;5079029;28;20039;-73
2022/08/24 06:55:55;;;;;;;7.13;4.13;;;;;;;23.06;86.15;96457.41;5053919;28;20020;-73
2022/08/24 06:58:22;;;;;;;10.00;4.15;;;;;;;21.33;96.87;96466.88;5072981;28;20024;-74
2022/08/24 07:00:48;;;;;;;10.48;4.38;;;;;;;22.66;89.17;96458.00;5071782;28;20158;-74
2022/08/24 07:03:15;;;;;;;6.85;3.80;;;;;;;23.86;82.67;96462.13;5071544;28;20115;-74
2022/08/24 07:05:55;;;;;;;5.43;3.60;;;;;;;24.29;75.40;96460.81;5054739;28;20040;-74
2022/08/24 07:08:36;;;;;;;7.00;3.90;;;;;;;23.90;76.92;96470.53;5058814;28;20039;-74
2022/08/24 07:11:03;;;;;;;6.45;4.32;;;;;;;23.32;85.18;96468.72;5069062;28;20028;-74
2022/08/24 07:13:32;;;;;;;6.00;4.25;;;;;;;23.25;85.84;96466.16;5058925;28;21198;-75
2022/08/24 07:15:58;;;;;;;9.15;4.68;;;;;;;24.25;80.39;96473.13;5058003;28;20056;-74
2022/08/24 07:18:24;;;;;;;8.13;4.20;;;;;;;25.09;73.86;96464.38;5059517;28;20055;-73
2022/08/24 07:20:50;;;;;;;7.95;4.38;;;;;;;25.52;70.82;96468.22;5042145;28;20047;-73
2022/08/24 07:23:49;;;;;;;7.88;4.40;;;;;;;25.76;67.71;96468.84;5059766;28;20039;-73
2022/08/24 07:26:19;;;;;;;7.10;4.03;;;;;;;25.57;69.17;96466.44;5069140;28;20036;-73
2022/08/24 07:28:44;;;;;;;7.03;3.80;;;;;;;24.14;78.36;96477.44;5067841;28;20027;-72
2022/08/24 07:31:12;;;;;;;7.75;4.00;;;;;;;24.73;76.71;96471.03;5067894;28;20036;-73
2022/08/24 07:33:49;;;;;;;6.72;3.90;;;;;;;24.60;79.19;96464.91;5067783;28;20040;-73
2022/08/24 07:36:16;;;;;;;7.70;2.90;;;;;;;26.27;69.30;96470.28;5068058;28;20024;-73
2022/08/24 07:38:42;;;;;;;6.63;3.63;;;;;;;26.32;67.48;96466.81;5068824;28;20024;-72
2022/08/24 07:41:08;;;;;;;4.32;3.22;;;;;;;26.09;66.81;96468.75;5075065;28;20083;-73
2022/08/24 07:43:33;;;;;;;8.77;3.78;;;;;;;26.83;60.53;96461.13;5082729;28;20054;-73
2022/08/24 07:45:59;;;;;;;6.45;3.72;;;;;;;26.48;63.25;96467.81;5079962;28;20523;-73
2022/08/24 07:48:27;;;;;;;4.38;2.83;;;;;;;27.14;60.46;96468.44;5083025;28;20100;-73
2022/08/24 07:50:55;;;;;;;9.10;3.10;;;;;;;27.47;58.26;96464.59;5054396;28;20710;-73
2022/08/24 07:53:20;;;;;;;4.70;3.00;;;;;;;27.54;55.34;96461.66;5080639;28;20028;-73
2022/08/24 07:55:53;;;;;;;5.53;3.33;;;;;;;27.61;55.29;96464.13;5095180;28;20461;-73
2022/08/24 07:58:19;;;;;;;4.68;2.80;;;;;;;28.24;52.96;96464.97;5082556;28;20110;-73
2022/08/24 08:00:46;;;;;;;6.65;2.70;;;;;;;27.57;58.12;96471.97;5082353;28;20123;-73
2022/08/24 08:03:12;;;;;;;4.78;2.90;;;;;;;28.06;52.78;96481.66;5063491;28;20033;-74
2022/08/24 08:05:41;;;;;;;5.15;2.47;;;;;;;29.27;49.92;96472.16;5083346;28;20024;-73
2022/08/24 08:08:08;;;;;;;5.60;2.80;;;;;;;28.47;49.66;96484.53;5078811;28;20036;-73
2022/08/24 08:10:35;;;;;;;5.53;2.70;;;;;;;28.30;50.95;96482.81;5082843;28;20039;-73
2022/08/24 08:13:02;;;;;;;4.32;2.58;;;;;;;27.67;51.93;96473.91;5086005;28;20035;-73
2022/08/24 08:15:28;;;;;;;5.00;2.58;;;;;;;27.67;54.37;96473.91;5082774;28;20032;-73
2022/08/24 08:18:01;;;;;;;6.38;2.78;;;;;;;28.40;50.30;96474.78;5081880;28;21151;-73
2022/08/24 08:20:27;;;;;;;6.38;2.70;;;;;;;27.79;53.27;96471.00;5081906;28;20039;-73
2022/08/24 08:26:00;;;;;;;6.28;2.58;;;;;;;28.40;51.09;96469.38;5083112;28;20497;-73
2022/08/24 08:28:52;;;;;;;3.80;1.85;;;;;;;30.09;43.39;96473.88;5076356;28;20560;-73
2022/08/24 08:31:18;;;;;;;3.92;2.20;;;;;;;29.96;44.70;96472.56;5082660;28;20031;-73
2022/08/24 08:33:43;;;;;;;4.53;2.30;;;;;;;29.45;46.09;96457.22;5082749;28;20647;-74
2022/08/24 08:36:16;;;;;;;3.28;2.15;;;;;;;29.30;45.64;96470.78;5063116;28;20166;-74
2022/08/24 08:38:49;;;;;;;3.63;2.33;;;;;;;29.11;45.29;96470.56;5095928;28;20039;-74
2022/08/24 08:41:18;;;;;;;5.20;2.03;;;;;;;28.68;45.67;96478.09;5066959;28;20024;-74
2022/08/24 08:44:39;;;;;;;4.80;2.10;;;;;;;30.09;43.39;96466.53;5086417;28;20541;-74
2022/08/24 08:47:45;;;;;;;3.33;1.85;;;;;;;29.52;42.96;96465.09;5083401;28;20074;-73
2022/08/24 08:50:18;;;;;;;4.03;1.88;;;;;;;29.15;43.70;96471.63;5067184;28;20034;-73
2022/08/24 08:53:18;;;;;;;2.97;1.65;;;;;;;28.73;42.11;96483.50;5089064;28;20024;-75
2022/08/24 08:56:12;;;;;;;7.25;2.67;;;;;;;27.75;46.08;96473.41;5084677;28;20458;-76
2022/08/24 08:59:00;;;;;;;5.25;2.28;;;;;;;28.19;43.75;96481.19;5078803;28;20097;-73
2022/08/24 09:01:50;;;;;;;2.58;1.65;;;;;;;28.24;42.39;96470.38;5071830;28;20493;-73
2022/08/24 09:04:39;;;;;;;2.75;1.70;;;;;;;26.78;48.18;96483.47;5088354;28;20035;-76
2022/08/24 09:07:25;;;;;;;3.55;1.88;;;;;;;28.02;46.33;96467.06;5065766;28;20197;-74
2022/08/24 09:10:12;;;;;;;5.85;2.08;;;;;;;27.83;45.96;96470.22;5073631;28;20028;-73
2022/08/24 09:13:07;;;;;;;6.00;1.63;;;;;;;28.45;43.52;96475.88;5071423;28;20047;-79
2022/08/24 09:16:03;;;;;;;2.75;1.75;;;;;;;28.64;41.49;96472.41;5086000;28;20531;-77
2022/08/24 09:18:50;;;;;;;2.95;1.60;;;;;;;28.17;41.14;96465.22;5069800;28;20563;-76
2022/08/24 09:21:44;;;;;;;5.13;2.15;;;;;;;29.80;39.09;96461.75;5087343;28;20481;-75
2022/08/24 09:24:33;;;;;;;3.47;1.95;;;;;;;28.86;40.86;96468.63;5091634;28;20032;-76
2022/08/24 09:27:09;;;;;;;3.85;2.00;;;;;;;28.73;43.66;96461.84;5087976;28;20881;-73
2022/08/24 09:30:02;;;;;;;3.03;1.67;;;;;;;29.88;39.90;96460.41;5070819;28;20039;-77
2022/08/24 09:32:55;;;;;;;2.65;1.60;;;;;;;29.73;37.00;96466.66;5088457;28;20031;-72
2022/08/24 09:35:32;;;;;;;2.72;1.40;;;;;;;29.28;36.18;96465.66;5087540;28;20020;-73
2022/08/24 09:38:04;;;;;;;3.70;1.65;;;;;;;30.00;38.69;96465.50;5079529;28;20107;-75
2022/08/24 09:40:42;;;;;;;4.22;2.67;;;;;;;29.17;40.81;96472.16;5084732;28;20028;-74
2022/08/24 09:43:13;;;;;;;2.75;2.03;;;;;;;29.12;40.48;96461.34;5088660;28;20069;-77
2022/08/24 09:45:42;;;;;;;2.97;2.00;;;;;;;29.06;41.54;96459.72;5086640;28;20135;-74
2022/08/24 09:48:23;;;;;;;3.40;1.77;;;;;;;28.38;44.20;96471.50;5081694;28;20025;-74
2022/08/24 09:51:24;;;;;;;3.17;1.70;;;;;;;28.27;42.08;96469.84;5085563;28;20032;-78
2022/08/24 09:54:22;;;;;;;5.30;2.20;;;;;;;27.88;42.42;96466.72;5054019;28;20063;-73
2022/08/24 09:57:03;;;;;;;2.63;1.85;;;;;;;28.94;40.67;96467.25;5077933;28;20032;-73
2022/08/24 10:00:08;;;;;;;6.22;2.20;;;;;;;30.06;36.95;96459.75;5088617;28;20020;-77
2022/08/24 10:02:57;;;;;;;3.60;1.92;;;;;;;29.51;38.66;96463.44;5088017;28;20035;-75
2022/08/24 10:05:44;;;;;;;2.60;1.40;;;;;;;29.74;39.16;96454.72;5087092;28;20093;-77
2022/08/24 10:08:25;;;;;;;5.70;2.00;;;;;;;29.62;39.27;96454.25;5082951;28;20478;-74
2022/08/24 10:11:02;;;;;;;3.00;1.85;;;;;;;29.86;39.09;96450.91;5081574;28;20469;-75
2022/08/24 10:13:54;;;;;;;5.22;2.20;;;;;;;28.87;41.72;96462.13;5087064;28;20078;-74
2022/08/24 10:16:37;;;;;;;5.93;2.20;;;;;;;29.56;39.81;96450.69;5086928;28;20784;-76
2022/08/24 10:19:30;;;;;;;2.22;1.60;;;;;;;30.23;38.89;96451.31;5087918;28;20043;-73
2022/08/24 10:22:15;;;;;;;4.53;2.15;;;;;;;30.97;37.35;96440.50;5080675;28;20028;-73
2022/08/24 10:24:55;;;;;;;2.58;1.70;;;;;;;30.75;37.15;96452.63;5086464;28;20032;-75
2022/08/24 10:27:40;;;;;;;3.38;1.90;;;;;;;28.70;40.68;96456.97;5084660;28;20043;-75
2022/08/24 10:30:32;;;;;;;3.65;1.67;;;;;;;30.61;38.81;96442.66;5081772;28;20378;-76
2022/08/24 10:33:13;;;;;;;3.20;2.00;;;;;;;30.06;39.28;96442.69;5048665;28;20967;-75
2022/08/24 10:36:18;;;;;;;4.15;1.90;;;;;;;29.94;38.47;96450.31;5066644;28;20059;-75
2022/08/24 10:43:32;;;;;;;4.28;2.28;;;;;;;30.08;39.27;96448.66;5078152;28;20021;-75
2022/08/24 10:45:20;;;;;;;;;;;;;;;29.69;41.10;96443.91;5082283;28;20138;-74
2022/08/24 10:48:15;;;;;;;4.07;2.03;;;;;;;31.50;37.58;96443.31;5085758;28;20379;-75
2022/08/24 10:50:58;;;;;;;6.18;1.85;;;;;;;31.28;38.13;96442.94;5079496;28;20063;-75
2022/08/24 10:53:32;;;;;;;3.53;2.47;;;;;;;28.80;42.05;96453.44;5094965;28;20047;-75
2022/08/24 10:56:07;;;;;;;3.55;2.20;;;;;;;29.80;41.97;96445.50;5084934;28;20732;-74
2022/08/24 10:58:56;;;;;;;3.22;1.83;;;;;;;31.59;38.38;96438.03;5080905;28;20031;-75
2022/08/24 11:01:32;;;;;;;4.65;2.50;;;;;;;31.98;36.43;96434.34;5081541;28;20031;-75
2022/08/24 11:04:10;;;;;;;3.20;2.30;;;;;;;30.24;40.76;96433.94;5078945;28;20114;-76
2022/08/24 11:07:01;;;;;;;4.20;2.72;;;;;;;29.37;43.09;96434.19;5085305;28;20036;-75
2022/08/24 11:09:43;;;;;;;3.45;2.60;;;;;;;28.73;46.05;96445.59;5067640;28;20090;-75
2022/08/24 11:12:37;;;;;;;4.30;2.25;;;;;;;29.70;42.44;96447.44;5084394;28;20047;-75
2022/08/24 11:15:17;;;;;;;5.78;2.30;;;;;;;30.59;41.00;96442.97;5084744;28;20043;-75
2022/08/24 11:17:56;;;;;;;3.20;2.00;;;;;;;32.15;38.32;96440.09;5079191;28;20027;-75
2022/08/24 11:20:27;;;;;;;4.10;2.30;;;;;;;31.00;40.83;96443.47;5077550;28;20027;-76
2022/08/24 11:23:02;;;;;;;5.90;2.22;;;;;;;31.72;39.72;96439.25;5086003;28;20048;-75
2022/08/24 11:25:33;;;;;;;4.85;2.50;;;;;;;31.24;39.95;96438.09;5084928;28;20546;-76
2022/08/24 11:28:19;;;;;;;3.35;1.95;;;;;;;31.89;39.50;96434.19;5084464;28;20106;-75
2022/08/24 11:30:45;;;;;;;2.95;2.30;;;;;;;31.52;40.01;96429.41;5086748;28;20097;-76
2022/08/24 11:33:32;;;;;;;4.47;2.10;;;;;;;32.10;38.10;96426.59;5084788;28;20036;-76
2022/08/24 11:35:59;;;;;;;2.75;1.90;;;;;;;31.88;38.97;96424.41;5075532;28;20389;-76
2022/08/24 11:38:33;;;;;;;3.85;2.30;;;;;;;31.79;39.63;96432.38;5084218;28;20031;-73
2022/08/24 11:41:08;;;;;;;3.47;2.13;;;;;;;32.89;36.90;96425.97;5085563;28;20028;-74
2022/08/24 11:43:43;;;;;;;6.22;2.17;;;;;;;31.37;39.52;96430.41;5080631;28;20058;-75
2022/08/24 11:46:11;;;;;;;2.97;2.22;;;;;;;31.31;39.35;96431.50;5083706;28;20133;-76
2022/08/24 11:49:08;;;;;;;2.85;1.98;;;;;;;31.27;39.59;96425.03;5080333;28;20028;-75
2022/08/24 11:51:39;;;;;;;3.22;1.60;;;;;;;31.62;38.73;96427.41;5082874;28;20121;-75
2022/08/24 11:54:32;;;;;;;5.00;1.92;;;;;;;31.95;37.55;96421.34;5080539;28;20028;-75
2022/08/24 11:57:07;;;;;;;2.83;2.10;;;;;;;31.65;38.33;96429.53;5082885;28;20109;-75
2022/08/24 11:59:55;;;;;;;5.57;2.10;;;;;;;30.67;40.20;96434.19;5084228;28;20028;-75
2022/08/24 12:02:51;;;;;;;4.07;2.33;;;;;;;30.41;40.95;96427.31;5084688;28;20038;-75
2022/08/24 12:05:36;;;;;;;4.80;2.65;;;;;;;30.42;40.92;96424.34;5079579;28;20051;-75
2022/08/24 12:08:40;;;;;;;2.80;2.10;;;;;;;31.93;38.85;96418.91;5076942;28;20032;-75